createdAt,value
2022-10-17T06:01:41.537Z,9.73
2022-10-17T06:06:54.820Z,8.88
2022-10-17T06:17:22.223Z,7.72
2022-10-17T06:27:50.725Z,7.13
2022-10-17T06:33:04.697Z,12.02
2022-10-17T06:38:18.379Z,8.07
2022-10-17T06:43:37.070Z,9.55
2022-10-17T06:48:50.442Z,6.35
2022-10-17T06:54:04.892Z,6.85
2022-10-17T07:04:47.656Z,6.82
2022-10-17T07:10:01.977Z,6.88
2022-10-17T07:15:19.658Z,3.58
2022-10-17T07:20:33.145Z,4.85
2022-10-17T07:25:47.623Z,4.85
2022-10-17T07:31:05.155Z,6.88
2022-10-17T07:36:20.697Z,5.68
2022-10-17T07:41:36.044Z,5.55
2022-10-17T07:46:53.125Z,3.35
2022-10-17T07:52:07.256Z,6.22
2022-10-17T07:57:24.020Z,7.57
2022-10-17T08:02:45.327Z,3.97
2022-10-17T08:07:59.835Z,4.72
2022-10-17T08:18:28.192Z,9.02
2022-10-17T08:23:42.297Z,6.50
2022-10-17T08:28:56.323Z,13.25
2022-10-17T08:34:12.869Z,11.60
2022-10-17T08:39:26.614Z,13.15
2022-10-17T08:44:50.939Z,9.68
2022-10-17T08:50:10.065Z,9.45
2022-10-17T08:55:37.854Z,9.10
2022-10-17T09:01:01.047Z,11.20
2022-10-17T09:06:33.027Z,6.45
2022-10-17T09:11:59.469Z,5.68
2022-10-17T09:17:23.082Z,8.27
2022-10-17T09:27:53.666Z,5.75
2022-10-17T09:33:07.585Z,4.60
2022-10-17T09:38:32.070Z,11.95
2022-10-17T09:43:47.084Z,7.55
2022-10-17T09:49:04.024Z,8.48
2022-10-17T09:54:25.834Z,4.45
2022-10-17T09:59:43.157Z,14.50
2022-10-17T10:05:14.112Z,8.40
2022-10-17T10:10:39.141Z,15.05
2022-10-17T10:15:55.446Z,6.60
2022-10-17T10:21:21.184Z,8.73
2022-10-17T10:26:42.672Z,5.03
2022-10-17T10:31:57.634Z,10.57
2022-10-17T10:37:14.703Z,7.63
2022-10-17T10:42:38.553Z,9.65
2022-10-17T10:48:01.033Z,15.03
2022-10-17T10:53:26.026Z,9.00
2022-10-17T10:58:55.965Z,10.15
2022-10-17T11:04:31.797Z,12.23
2022-10-17T11:09:58.545Z,8.52
2022-10-17T11:15:23.044Z,7.05
2022-10-17T11:20:43.221Z,11.02
2022-10-17T11:25:59.384Z,8.20
2022-10-17T11:31:20.066Z,8.73
2022-10-17T11:36:38.373Z,13.82
2022-10-17T11:41:55.446Z,10.43
2022-10-17T11:47:19.409Z,14.75
2022-10-17T11:52:55.850Z,14.10
2022-10-17T11:58:33.993Z,15.18
2022-10-17T12:04:09.686Z,13.98
2022-10-17T12:09:28.977Z,11.57
2022-10-17T12:14:51.672Z,11.10
2022-10-17T12:20:37.669Z,14.85
2022-10-17T12:26:04.057Z,17.67
2022-10-17T12:31:33.944Z,17.17
2022-10-17T12:36:51.445Z,20.83
2022-10-17T12:42:04.514Z,22.20
2022-10-17T12:47:45.366Z,16.75
2022-10-17T12:53:19.203Z,15.38
2022-10-17T12:58:33.149Z,14.00
2022-10-17T13:03:52.153Z,14.07
2022-10-17T13:09:10.718Z,15.93
2022-10-17T13:14:25.313Z,10.27
2022-10-17T13:19:49.049Z,10.50
2022-10-17T13:25:16.876Z,15.63
2022-10-17T13:30:38.482Z,11.45
2022-10-17T13:36:07.184Z,7.57
2022-10-17T13:41:41.521Z,9.98
2022-10-17T13:46:56.354Z,10.20
2022-10-17T13:52:12.401Z,9.60
2022-10-17T13:57:34.282Z,12.02
2022-10-17T14:02:50.986Z,10.70
2022-10-17T14:08:12.765Z,10.15
2022-10-17T14:13:36.108Z,10.90
2022-10-17T14:18:49.810Z,10.80
2022-10-17T14:24:23.462Z,12.65
2022-10-17T14:29:55.285Z,16.02
2022-10-17T14:35:30.505Z,29.48
2022-10-17T14:40:51.470Z,22.77
2022-10-17T14:46:06.239Z,23.60
2022-10-17T14:51:15.578Z,33.28
2022-10-17T14:56:28.902Z,24.55
2022-10-17T15:06:44.879Z,22.95
2022-10-17T15:11:53.356Z,20.30
2022-10-17T15:17:03.027Z,17.13
2022-10-17T15:22:12.021Z,16.17
2022-10-17T15:27:22.794Z,14.68
2022-10-17T15:32:36.045Z,13.57
2022-10-17T15:37:44.179Z,16.77
2022-10-17T15:42:52.235Z,13.45
2022-10-17T15:48:08.040Z,16.48
2022-10-17T15:53:16.601Z,20.27
2022-10-17T15:58:24.172Z,15.02
2022-10-17T16:03:36.657Z,15.80
2022-10-17T16:08:46.771Z,11.65
2022-10-17T16:13:59.301Z,12.73
2022-10-17T16:19:13.193Z,13.88
2022-10-17T16:24:22.985Z,12.82
2022-10-17T16:29:32.726Z,13.20
2022-10-17T16:34:45.659Z,11.30
2022-10-17T16:39:56.269Z,13.27
2022-10-17T16:45:06.875Z,14.27
2022-10-17T16:50:19.362Z,14.02
2022-10-17T16:55:29.092Z,13.35
2022-10-17T17:00:38.764Z,11.27
2022-10-17T17:05:56.616Z,13.85
2022-10-17T17:11:06.768Z,13.07
2022-10-17T17:16:18.433Z,11.77
2022-10-17T17:21:31.480Z,10.73
2022-10-17T17:26:42.219Z,9.07
2022-10-17T17:31:51.814Z,7.78
2022-10-17T17:37:04.291Z,8.93
2022-10-17T17:42:13.355Z,9.68
2022-10-17T17:47:23.638Z,11.15
2022-10-17T17:52:36.740Z,7.97
2022-10-17T17:57:46.220Z,8.35
2022-10-17T18:02:55.301Z,10.50
2022-10-17T18:08:07.223Z,8.70
2022-10-17T18:13:16.955Z,11.05
2022-10-17T18:18:27.100Z,10.48
2022-10-17T18:23:47.690Z,7.10
2022-10-17T18:29:02.414Z,9.98
2022-10-17T18:34:15.529Z,6.00
2022-10-17T18:39:35.270Z,7.57
2022-10-17T18:44:48.545Z,5.68
2022-10-17T18:50:00.842Z,9.88
2022-10-17T18:55:20.214Z,6.95
2022-10-17T19:00:33.278Z,9.55
2022-10-17T19:05:47.698Z,7.65
2022-10-17T19:11:06.179Z,7.63
2022-10-17T19:16:23.542Z,11.13
2022-10-17T19:21:39.326Z,8.23
2022-10-17T19:26:57.952Z,9.68
2022-10-17T19:32:16.673Z,12.70
2022-10-17T19:37:33.736Z,9.32
2022-10-17T19:42:48.929Z,8.45
2022-10-17T19:48:07.297Z,9.68
2022-10-17T19:53:22.147Z,9.85
2022-10-17T19:58:46.706Z,15.60
2022-10-17T20:04:00.288Z,13.48
2022-10-17T20:09:17.058Z,8.98
2022-10-17T20:14:34.378Z,11.63
2022-10-17T20:19:55.278Z,10.18
2022-10-17T20:25:09.525Z,11.77
2022-10-17T20:30:28.152Z,11.48
2022-10-17T20:40:59.022Z,10.23
2022-10-17T20:46:36.495Z,8.95
2022-10-17T20:51:53.788Z,9.45
2022-10-17T20:57:07.647Z,12.05
2022-10-17T21:02:26.792Z,17.73
2022-10-17T21:07:40.822Z,13.07
2022-10-17T21:12:55.507Z,21.60
2022-10-17T21:18:14.432Z,12.57
2022-10-17T21:23:28.649Z,9.82
2022-10-17T21:28:43.037Z,9.38
2022-10-17T21:34:02.409Z,15.68
2022-10-17T21:39:16.535Z,18.20
2022-10-17T21:44:31.758Z,24.20
2022-10-17T21:49:50.980Z,22.90
2022-10-17T21:55:05.528Z,9.27
2022-10-17T22:00:20.909Z,9.20
2022-10-17T22:05:40.834Z,10.32
2022-10-17T22:10:55.038Z,10.88
2022-10-17T22:16:10.661Z,10.30
2022-10-17T22:21:29.528Z,9.48
2022-10-17T22:26:46.083Z,8.32
2022-10-17T22:31:59.973Z,9.98
2022-10-17T22:37:17.649Z,7.32
2022-10-17T22:42:33.991Z,8.77
2022-10-17T22:47:52.327Z,9.88
2022-10-17T22:53:10.889Z,8.18
2022-10-17T22:58:25.299Z,9.38
2022-10-17T23:03:40.078Z,12.80
2022-10-17T23:08:58.215Z,10.82
2022-10-17T23:14:11.754Z,9.60
2022-10-17T23:19:26.175Z,10.45
2022-10-17T23:24:43.287Z,9.85
2022-10-17T23:29:57.563Z,8.23
2022-10-17T23:35:11.101Z,8.88
2022-10-17T23:40:28.763Z,7.70
2022-10-17T23:45:42.095Z,8.10
2022-10-17T23:51:04.296Z,7.75
2022-10-17T23:56:24.795Z,9.00
